sensor_id;sensor_type;location;lat;lon;timestamp;temperature;humidity
13744;DHT22;6943;52.368;9.966;2022-10-31T00:01:25;14.40;99.90
13744;DHT22;6943;52.368;9.966;2022-10-31T00:03:51;13.50;1.00
13744;DHT22;6943;52.368;9.966;2022-10-31T00:06:16;15.50;1.00
13744;DHT22;6943;52.368;9.966;2022-10-31T00:08:46;14.20;1.00
13744;DHT22;6943;52.368;9.966;2022-10-31T00:11:12;15.50;1.00
13744;DHT22;6943;52.368;9.966;2022-10-31T00:13:38;14.20;1.00
13744;DHT22;6943;52.368;9.966;2022-10-31T00:16:03;14.10;1.00
13744;DHT22;6943;52.368;9.966;2022-10-31T00:18:29;14.00;1.00
13744;DHT22;6943;52.368;9.966;2022-10-31T00:21:02;14.00;1.00
13744;DHT22;6943;52.368;9.966;2022-10-31T00:23:28;13.90;1.00
13744;DHT22;6943;52.368;9.966;2022-10-31T00:25:54;13.90;57.90
13744;DHT22;6943;52.368;9.966;2022-10-31T00:28:19;13.80;93.60
13744;DHT22;6943;52.368;9.966;2022-10-31T00:30:45;13.80;99.90
13744;DHT22;6943;52.368;9.966;2022-10-31T00:33:10;13.80;99.90
13744;DHT22;6943;52.368;9.966;2022-10-31T00:35:36;13.70;99.90
13744;DHT22;6943;52.368;9.966;2022-10-31T00:38:01;13.70;99.90
13744;DHT22;6943;52.368;9.966;2022-10-31T00:40:27;14.30;99.90
13744;DHT22;6943;52.368;9.966;2022-10-31T00:42:52;13.70;99.90
13744;DHT22;6943;52.368;9.966;2022-10-31T00:45:18;13.70;99.90
13744;DHT22;6943;52.368;9.966;2022-10-31T00:47:43;13.70;99.90
13744;DHT22;6943;52.368;9.966;2022-10-31T00:50:09;13.70;99.90
13744;DHT22;6943;52.368;9.966;2022-10-31T00:52:34;13.70;99.90
13744;DHT22;6943;52.368;9.966;2022-10-31T00:55:00;13.70;99.90
13744;DHT22;6943;52.368;9.966;2022-10-31T00:57:26;13.70;99.90
13744;DHT22;6943;52.368;9.966;2022-10-31T00:59:51;15.70;99.90
13744;DHT22;6943;52.368;9.966;2022-10-31T01:02:17;13.80;99.90
13744;DHT22;6943;52.368;9.966;2022-10-31T01:04:42;13.80;99.90
13744;DHT22;6943;52.368;9.966;2022-10-31T01:07:08;13.80;99.90
13744;DHT22;6943;52.368;9.966;2022-10-31T01:09:33;13.80;99.90
13744;DHT22;6943;52.368;9.966;2022-10-31T01:11:59;13.80;99.90
13744;DHT22;6943;52.368;9.966;2022-10-31T01:14:24;13.80;99.90
13744;DHT22;6943;52.368;9.966;2022-10-31T01:16:50;13.80;99.90
13744;DHT22;6943;52.368;9.966;2022-10-31T01:19:15;13.80;99.90
13744;DHT22;6943;52.368;9.966;2022-10-31T01:21:41;13.80;99.90
13744;DHT22;6943;52.368;9.966;2022-10-31T01:24:07;13.90;99.90
13744;DHT22;6943;52.368;9.966;2022-10-31T01:26:33;13.80;99.90
13744;DHT22;6943;52.368;9.966;2022-10-31T01:29:05;13.90;99.90
13744;DHT22;6943;52.368;9.966;2022-10-31T01:31:34;13.80;99.90
13744;DHT22;6943;52.368;9.966;2022-10-31T01:34:00;13.90;99.90
13744;DHT22;6943;52.368;9.966;2022-10-31T01:36:34;13.90;99.90
13744;DHT22;6943;52.368;9.966;2022-10-31T01:39:03;13.90;99.90
13744;DHT22;6943;52.368;9.966;2022-10-31T01:41:32;13.80;99.90
13744;DHT22;6943;52.368;9.966;2022-10-31T01:44:01;13.80;99.90
13744;DHT22;6943;52.368;9.966;2022-10-31T01:46:30;13.80;99.90
13744;DHT22;6943;52.368;9.966;2022-10-31T01:49:00;13.80;99.90
13744;DHT22;6943;52.368;9.966;2022-10-31T01:51:31;13.80;99.90
13744;DHT22;6943;52.368;9.966;2022-10-31T01:54:01;13.80;99.90
13744;DHT22;6943;52.368;9.966;2022-10-31T01:56:27;13.90;99.90
13744;DHT22;6943;52.368;9.966;2022-10-31T01:58:54;13.90;99.90
13744;DHT22;6943;52.368;9.966;2022-10-31T02:01:20;13.90;99.90
13744;DHT22;6943;52.368;9.966;2022-10-31T02:03:46;13.90;99.90
13744;DHT22;6943;52.368;9.966;2022-10-31T02:06:21;13.90;99.90
13744;DHT22;6943;52.368;9.966;2022-10-31T02:08:52;13.80;99.90
13744;DHT22;6943;52.368;9.966;2022-10-31T02:11:18;13.80;99.90
13744;DHT22;6943;52.368;9.966;2022-10-31T02:13:44;13.80;99.90
13744;DHT22;6943;52.368;9.966;2022-10-31T02:16:11;13.70;99.90
13744;DHT22;6943;52.368;9.966;2022-10-31T02:18:37;13.70;99.90
13744;DHT22;6943;52.368;9.966;2022-10-31T02:29:22;13.50;99.90
13744;DHT22;6943;52.368;9.966;2022-10-31T02:34:22;13.40;99.90
13744;DHT22;6943;52.368;9.966;2022-10-31T02:37:14;13.40;99.90
13744;DHT22;6943;52.368;9.966;2022-10-31T02:39:56;13.40;99.90
13744;DHT22;6943;52.368;9.966;2022-10-31T02:42:34;13.30;99.90
13744;DHT22;6943;52.368;9.966;2022-10-31T02:45:26;13.20;99.90
13744;DHT22;6943;52.368;9.966;2022-10-31T02:47:55;13.10;99.90
13744;DHT22;6943;52.368;9.966;2022-10-31T02:50:27;13.00;99.90
13744;DHT22;6943;52.368;9.966;2022-10-31T02:52:53;13.00;99.90
13744;DHT22;6943;52.368;9.966;2022-10-31T02:57:48;12.90;99.90
13744;DHT22;6943;52.368;9.966;2022-10-31T03:00:14;12.90;99.90
13744;DHT22;6943;52.368;9.966;2022-10-31T03:05:58;12.90;99.90
13744;DHT22;6943;52.368;9.966;2022-10-31T03:11:08;12.80;99.90
13744;DHT22;6943;52.368;9.966;2022-10-31T03:14:00;12.80;99.90
13744;DHT22;6943;52.368;9.966;2022-10-31T03:16:48;12.80;99.90
13744;DHT22;6943;52.368;9.966;2022-10-31T03:19:28;12.80;99.90
13744;DHT22;6943;52.368;9.966;2022-10-31T03:22:00;12.80;99.90
13744;DHT22;6943;52.368;9.966;2022-10-31T03:24:32;12.80;99.90
13744;DHT22;6943;52.368;9.966;2022-10-31T03:27:00;12.80;99.90
13744;DHT22;6943;52.368;9.966;2022-10-31T03:29:29;12.70;99.90
13744;DHT22;6943;52.368;9.966;2022-10-31T03:32:07;12.70;99.90
13744;DHT22;6943;52.368;9.966;2022-10-31T03:34:35;12.70;99.90
13744;DHT22;6943;52.368;9.966;2022-10-31T03:37:04;12.60;99.90
13744;DHT22;6943;52.368;9.966;2022-10-31T03:39:30;12.50;99.90
13744;DHT22;6943;52.368;9.966;2022-10-31T03:42:04;12.60;99.90
13744;DHT22;6943;52.368;9.966;2022-10-31T03:44:32;12.60;99.90
13744;DHT22;6943;52.368;9.966;2022-10-31T03:46:58;12.50;99.90
13744;DHT22;6943;52.368;9.966;2022-10-31T03:49:24;12.50;99.90
13744;DHT22;6943;52.368;9.966;2022-10-31T03:52:25;12.50;99.90
13744;DHT22;6943;52.368;9.966;2022-10-31T03:55:13;12.60;99.90
13744;DHT22;6943;52.368;9.966;2022-10-31T03:57:45;12.50;99.90
13744;DHT22;6943;52.368;9.966;2022-10-31T04:00:14;12.50;99.90
13744;DHT22;6943;52.368;9.966;2022-10-31T04:02:55;12.50;99.90
13744;DHT22;6943;52.368;9.966;2022-10-31T04:05:22;12.50;99.90
13744;DHT22;6943;52.368;9.966;2022-10-31T04:07:51;12.50;99.90
13744;DHT22;6943;52.368;9.966;2022-10-31T04:10:18;12.50;99.90
13744;DHT22;6943;52.368;9.966;2022-10-31T04:12:50;12.50;99.90
13744;DHT22;6943;52.368;9.966;2022-10-31T04:15:16;12.40;99.90
13744;DHT22;6943;52.368;9.966;2022-10-31T04:17:45;12.40;99.90
13744;DHT22;6943;52.368;9.966;2022-10-31T04:20:16;12.30;99.90
13744;DHT22;6943;52.368;9.966;2022-10-31T04:22:41;12.40;99.90
13744;DHT22;6943;52.368;9.966;2022-10-31T04:25:07;12.30;99.90
13744;DHT22;6943;52.368;9.966;2022-10-31T04:27:33;12.30;99.90
13744;DHT22;6943;52.368;9.966;2022-10-31T04:29:59;12.30;99.90
13744;DHT22;6943;52.368;9.966;2022-10-31T04:32:25;12.30;99.90
13744;DHT22;6943;52.368;9.966;2022-10-31T04:34:50;12.20;99.90
13744;DHT22;6943;52.368;9.966;2022-10-31T04:37:16;12.30;99.90
13744;DHT22;6943;52.368;9.966;2022-10-31T04:39:41;12.30;99.90
13744;DHT22;6943;52.368;9.966;2022-10-31T04:42:07;12.30;99.90
13744;DHT22;6943;52.368;9.966;2022-10-31T04:44:32;12.30;99.90
13744;DHT22;6943;52.368;9.966;2022-10-31T04:46:58;12.30;99.90
13744;DHT22;6943;52.368;9.966;2022-10-31T04:49:23;12.20;99.90
13744;DHT22;6943;52.368;9.966;2022-10-31T04:51:49;12.00;99.90
13744;DHT22;6943;52.368;9.966;2022-10-31T04:54:14;12.20;99.90
13744;DHT22;6943;52.368;9.966;2022-10-31T04:56:40;12.10;99.90
13744;DHT22;6943;52.368;9.966;2022-10-31T04:59:05;12.10;99.90
13744;DHT22;6943;52.368;9.966;2022-10-31T05:01:31;12.10;99.90
13744;DHT22;6943;52.368;9.966;2022-10-31T05:03:57;12.00;99.90
13744;DHT22;6943;52.368;9.966;2022-10-31T05:06:22;12.00;99.90
13744;DHT22;6943;52.368;9.966;2022-10-31T05:08:48;12.00;99.90
13744;DHT22;6943;52.368;9.966;2022-10-31T05:11:13;11.70;99.90
13744;DHT22;6943;52.368;9.966;2022-10-31T05:13:39;11.90;99.90
13744;DHT22;6943;52.368;9.966;2022-10-31T05:16:04;11.90;99.90
13744;DHT22;6943;52.368;9.966;2022-10-31T05:18:30;11.90;99.90
13744;DHT22;6943;52.368;9.966;2022-10-31T05:20:55;11.80;99.90
13744;DHT22;6943;52.368;9.966;2022-10-31T05:23:21;11.80;99.90
13744;DHT22;6943;52.368;9.966;2022-10-31T05:25:46;11.80;99.90
13744;DHT22;6943;52.368;9.966;2022-10-31T05:28:12;11.70;99.90
13744;DHT22;6943;52.368;9.966;2022-10-31T05:30:37;11.70;99.90
13744;DHT22;6943;52.368;9.966;2022-10-31T05:33:03;11.70;99.90
13744;DHT22;6943;52.368;9.966;2022-10-31T05:35:31;11.40;99.90
13744;DHT22;6943;52.368;9.966;2022-10-31T05:37:58;11.60;99.90
13744;DHT22;6943;52.368;9.966;2022-10-31T05:40:25;12.00;99.90
13744;DHT22;6943;52.368;9.966;2022-10-31T05:42:52;11.60;99.90
13744;DHT22;6943;52.368;9.966;2022-10-31T05:45:18;11.60;99.90
13744;DHT22;6943;52.368;9.966;2022-10-31T05:47:52;11.60;99.90
13744;DHT22;6943;52.368;9.966;2022-10-31T05:50:18;11.60;99.90
13744;DHT22;6943;52.368;9.966;2022-10-31T05:52:44;11.60;99.90
13744;DHT22;6943;52.368;9.966;2022-10-31T05:55:09;11.60;99.90
13744;DHT22;6943;52.368;9.966;2022-10-31T05:57:35;11.50;99.90
13744;DHT22;6943;52.368;9.966;2022-10-31T06:00:00;11.60;99.90
13744;DHT22;6943;52.368;9.966;2022-10-31T06:02:26;11.50;99.90
13744;DHT22;6943;52.368;9.966;2022-10-31T06:04:52;11.50;99.90
13744;DHT22;6943;52.368;9.966;2022-10-31T06:07:17;11.50;99.90
13744;DHT22;6943;52.368;9.966;2022-10-31T06:09:43;11.50;99.90
13744;DHT22;6943;52.368;9.966;2022-10-31T06:12:08;11.50;99.90
13744;DHT22;6943;52.368;9.966;2022-10-31T06:14:34;11.40;99.90
13744;DHT22;6943;52.368;9.966;2022-10-31T06:16:59;11.50;99.90
13744;DHT22;6943;52.368;9.966;2022-10-31T06:19:25;11.40;99.90
13744;DHT22;6943;52.368;9.966;2022-10-31T06:21:50;11.40;99.90
13744;DHT22;6943;52.368;9.966;2022-10-31T06:24:16;11.40;99.90
13744;DHT22;6943;52.368;9.966;2022-10-31T06:26:41;11.40;99.90
13744;DHT22;6943;52.368;9.966;2022-10-31T06:29:07;11.40;99.90
13744;DHT22;6943;52.368;9.966;2022-10-31T06:31:32;11.40;99.90
13744;DHT22;6943;52.368;9.966;2022-10-31T06:33:58;11.40;99.90
13744;DHT22;6943;52.368;9.966;2022-10-31T06:36:24;11.40;99.90
13744;DHT22;6943;52.368;9.966;2022-10-31T06:38:50;11.30;99.90
13744;DHT22;6943;52.368;9.966;2022-10-31T06:41:16;11.20;99.90
13744;DHT22;6943;52.368;9.966;2022-10-31T06:43:41;11.20;99.90
13744;DHT22;6943;52.368;9.966;2022-10-31T06:46:07;11.20;99.90
13744;DHT22;6943;52.368;9.966;2022-10-31T06:48:32;11.20;99.90
13744;DHT22;6943;52.368;9.966;2022-10-31T06:50:59;11.30;99.90
13744;DHT22;6943;52.368;9.966;2022-10-31T06:53:25;11.30;99.90
13744;DHT22;6943;52.368;9.966;2022-10-31T06:55:51;11.30;99.90
13744;DHT22;6943;52.368;9.966;2022-10-31T06:58:16;11.40;99.90
13744;DHT22;6943;52.368;9.966;2022-10-31T07:00:42;11.40;99.90
13744;DHT22;6943;52.368;9.966;2022-10-31T07:03:12;11.60;99.90
13744;DHT22;6943;52.368;9.966;2022-10-31T07:05:38;11.70;99.90
13744;DHT22;6943;52.368;9.966;2022-10-31T07:08:06;11.80;99.90
13744;DHT22;6943;52.368;9.966;2022-10-31T07:10:34;12.10;99.90
13744;DHT22;6943;52.368;9.966;2022-10-31T07:13:02;12.30;99.90
13744;DHT22;6943;52.368;9.966;2022-10-31T07:15:32;12.60;99.90
13744;DHT22;6943;52.368;9.966;2022-10-31T07:18:00;12.80;99.90
13744;DHT22;6943;52.368;9.966;2022-10-31T07:20:29;13.10;99.90
13744;DHT22;6943;52.368;9.966;2022-10-31T07:22:55;13.20;99.90
13744;DHT22;6943;52.368;9.966;2022-10-31T07:25:21;13.50;99.90
13744;DHT22;6943;52.368;9.966;2022-10-31T07:27:47;13.50;99.90
13744;DHT22;6943;52.368;9.966;2022-10-31T07:30:13;13.40;99.90
13744;DHT22;6943;52.368;9.966;2022-10-31T07:32:40;13.50;99.90
13744;DHT22;6943;52.368;9.966;2022-10-31T07:35:08;13.60;99.90
13744;DHT22;6943;52.368;9.966;2022-10-31T07:37:34;13.80;99.90
13744;DHT22;6943;52.368;9.966;2022-10-31T07:40:00;14.10;99.90
13744;DHT22;6943;52.368;9.966;2022-10-31T07:42:26;14.40;99.90
13744;DHT22;6943;52.368;9.966;2022-10-31T07:44:52;14.70;99.90
13744;DHT22;6943;52.368;9.966;2022-10-31T07:47:17;14.90;99.90
13744;DHT22;6943;52.368;9.966;2022-10-31T07:49:43;15.30;99.90
13744;DHT22;6943;52.368;9.966;2022-10-31T07:52:08;15.30;99.90
13744;DHT22;6943;52.368;9.966;2022-10-31T07:54:34;15.40;99.90
13744;DHT22;6943;52.368;9.966;2022-10-31T07:56:59;15.70;99.90
13744;DHT22;6943;52.368;9.966;2022-10-31T07:59:25;15.80;99.90
13744;DHT22;6943;52.368;9.966;2022-10-31T08:01:52;15.80;99.90
13744;DHT22;6943;52.368;9.966;2022-10-31T08:04:18;15.90;99.90
13744;DHT22;6943;52.368;9.966;2022-10-31T08:06:43;15.90;99.90
13744;DHT22;6943;52.368;9.966;2022-10-31T08:09:09;15.80;99.90
13744;DHT22;6943;52.368;9.966;2022-10-31T08:11:34;15.70;99.90
13744;DHT22;6943;52.368;9.966;2022-10-31T08:14:00;15.70;99.90
13744;DHT22;6943;52.368;9.966;2022-10-31T08:16:26;16.00;99.90
13744;DHT22;6943;52.368;9.966;2022-10-31T08:18:52;16.30;99.90
13744;DHT22;6943;52.368;9.966;2022-10-31T08:21:20;16.70;99.90
13744;DHT22;6943;52.368;9.966;2022-10-31T08:23:46;17.50;1.00
13744;DHT22;6943;52.368;9.966;2022-10-31T13:40:45;17.00;1.00
13744;DHT22;6943;52.368;9.966;2022-10-31T13:50:43;16.80;99.90
13744;DHT22;6943;52.368;9.966;2022-10-31T13:53:22;16.80;99.90
13744;DHT22;6943;52.368;9.966;2022-10-31T13:56:05;16.60;99.90
13744;DHT22;6943;52.368;9.966;2022-10-31T14:03:40;16.40;99.90
13744;DHT22;6943;52.368;9.966;2022-10-31T14:06:07;16.30;99.90
13744;DHT22;6943;52.368;9.966;2022-10-31T14:11:01;16.10;99.90
13744;DHT22;6943;52.368;9.966;2022-10-31T14:13:41;15.90;99.90
13744;DHT22;6943;52.368;9.966;2022-10-31T14:16:21;15.50;99.90
13744;DHT22;6943;52.368;9.966;2022-10-31T14:19:00;15.00;99.90
13744;DHT22;6943;52.368;9.966;2022-10-31T14:21:28;15.70;99.90
13744;DHT22;6943;52.368;9.966;2022-10-31T14:23:55;15.50;99.90
13744;DHT22;6943;52.368;9.966;2022-10-31T14:31:41;15.50;99.90
13744;DHT22;6943;52.368;9.966;2022-10-31T14:34:29;15.30;99.90
13744;DHT22;6943;52.368;9.966;2022-10-31T14:40:14;15.40;99.90
13744;DHT22;6943;52.368;9.966;2022-10-31T15:03:35;15.00;99.90
13744;DHT22;6943;52.368;9.966;2022-10-31T15:18:49;14.80;99.90
13744;DHT22;6943;52.368;9.966;2022-10-31T15:23:49;14.40;99.90
13744;DHT22;6943;52.368;9.966;2022-10-31T15:26:19;14.50;99.90
13744;DHT22;6943;52.368;9.966;2022-10-31T15:28:46;14.20;99.90
13744;DHT22;6943;52.368;9.966;2022-10-31T15:31:16;14.40;99.90
13744;DHT22;6943;52.368;9.966;2022-10-31T15:36:25;14.20;99.90
13744;DHT22;6943;52.368;9.966;2022-10-31T15:38:55;14.40;99.90
13744;DHT22;6943;52.368;9.966;2022-10-31T15:41:47;14.20;99.90
13744;DHT22;6943;52.368;9.966;2022-10-31T15:46:54;14.30;99.90
13744;DHT22;6943;52.368;9.966;2022-10-31T15:49:42;15.00;99.90
13744;DHT22;6943;52.368;9.966;2022-10-31T15:52:15;14.30;99.90
13744;DHT22;6943;52.368;9.966;2022-10-31T15:54:49;14.20;99.90
13744;DHT22;6943;52.368;9.966;2022-10-31T15:57:17;14.10;99.90
13744;DHT22;6943;52.368;9.966;2022-10-31T16:07:18;14.10;99.90
13744;DHT22;6943;52.368;9.966;2022-10-31T16:12:16;14.10;99.90
13744;DHT22;6943;52.368;9.966;2022-10-31T16:14:42;13.80;99.90
13744;DHT22;6943;52.368;9.966;2022-10-31T16:17:13;14.10;99.90
13744;DHT22;6943;52.368;9.966;2022-10-31T16:22:28;14.20;99.90
13744;DHT22;6943;52.368;9.966;2022-10-31T16:27:28;14.00;99.90
13744;DHT22;6943;52.368;9.966;2022-10-31T16:47:43;14.10;99.90
13744;DHT22;6943;52.368;9.966;2022-10-31T16:50:16;14.20;99.90
13744;DHT22;6943;52.368;9.966;2022-10-31T16:55:12;14.20;99.90
13744;DHT22;6943;52.368;9.966;2022-10-31T17:00:12;14.20;99.90
13744;DHT22;6943;52.368;9.966;2022-10-31T17:02:38;14.40;99.90
13744;DHT22;6943;52.368;9.966;2022-10-31T17:05:03;14.10;99.90
13744;DHT22;6943;52.368;9.966;2022-10-31T17:07:29;14.10;99.90
13744;DHT22;6943;52.368;9.966;2022-10-31T17:09:54;14.30;99.90
13744;DHT22;6943;52.368;9.966;2022-10-31T17:12:22;14.10;99.90
13744;DHT22;6943;52.368;9.966;2022-10-31T17:14:50;14.10;99.90
13744;DHT22;6943;52.368;9.966;2022-10-31T17:19:43;14.20;99.90
13744;DHT22;6943;52.368;9.966;2022-10-31T17:22:11;14.30;99.90
13744;DHT22;6943;52.368;9.966;2022-10-31T17:24:37;14.30;99.90
13744;DHT22;6943;52.368;9.966;2022-10-31T17:27:03;14.20;99.90
13744;DHT22;6943;52.368;9.966;2022-10-31T17:29:28;14.20;99.90
13744;DHT22;6943;52.368;9.966;2022-10-31T17:31:54;14.20;99.90
13744;DHT22;6943;52.368;9.966;2022-10-31T17:34:19;14.20;99.90
13744;DHT22;6943;52.368;9.966;2022-10-31T17:36:52;14.20;99.90
13744;DHT22;6943;52.368;9.966;2022-10-31T17:39:18;14.20;99.90
13744;DHT22;6943;52.368;9.966;2022-10-31T17:41:44;14.20;99.90
13744;DHT22;6943;52.368;9.966;2022-10-31T17:44:10;14.20;99.90
13744;DHT22;6943;52.368;9.966;2022-10-31T17:46:36;14.20;99.90
13744;DHT22;6943;52.368;9.966;2022-10-31T17:49:03;14.20;99.90
13744;DHT22;6943;52.368;9.966;2022-10-31T17:51:33;14.50;99.90
13744;DHT22;6943;52.368;9.966;2022-10-31T17:53:59;14.30;99.90
13744;DHT22;6943;52.368;9.966;2022-10-31T17:56:25;14.20;99.90
13744;DHT22;6943;52.368;9.966;2022-10-31T17:58:50;14.20;99.90
13744;DHT22;6943;52.368;9.966;2022-10-31T18:01:17;14.20;99.90
13744;DHT22;6943;52.368;9.966;2022-10-31T18:03:43;14.20;99.90
13744;DHT22;6943;52.368;9.966;2022-10-31T18:06:09;14.20;99.90
13744;DHT22;6943;52.368;9.966;2022-10-31T18:08:38;14.20;99.90
13744;DHT22;6943;52.368;9.966;2022-10-31T18:11:15;14.30;99.90
13744;DHT22;6943;52.368;9.966;2022-10-31T18:13:41;14.30;99.90
13744;DHT22;6943;52.368;9.966;2022-10-31T18:16:09;14.30;99.90
13744;DHT22;6943;52.368;9.966;2022-10-31T18:18:35;14.40;99.90
13744;DHT22;6943;52.368;9.966;2022-10-31T18:21:00;14.30;99.90
13744;DHT22;6943;52.368;9.966;2022-10-31T18:23:26;14.30;99.90
13744;DHT22;6943;52.368;9.966;2022-10-31T18:25:53;14.30;99.90
13744;DHT22;6943;52.368;9.966;2022-10-31T18:28:18;14.40;99.90
13744;DHT22;6943;52.368;9.966;2022-10-31T18:30:44;14.30;99.90
13744;DHT22;6943;52.368;9.966;2022-10-31T18:33:09;14.30;99.90
13744;DHT22;6943;52.368;9.966;2022-10-31T18:35:38;14.30;99.90
13744;DHT22;6943;52.368;9.966;2022-10-31T18:38:05;14.20;99.90
13744;DHT22;6943;52.368;9.966;2022-10-31T18:40:32;14.30;99.90
13744;DHT22;6943;52.368;9.966;2022-10-31T18:42:58;14.20;99.90
13744;DHT22;6943;52.368;9.966;2022-10-31T18:45:24;14.30;99.90
13744;DHT22;6943;52.368;9.966;2022-10-31T18:47:50;14.20;99.90
13744;DHT22;6943;52.368;9.966;2022-10-31T18:50:16;14.20;99.90
13744;DHT22;6943;52.368;9.966;2022-10-31T18:52:42;14.20;99.90
13744;DHT22;6943;52.368;9.966;2022-10-31T18:55:08;14.20;99.90
13744;DHT22;6943;52.368;9.966;2022-10-31T18:57:33;14.20;99.90
13744;DHT22;6943;52.368;9.966;2022-10-31T18:59:59;14.20;99.90
13744;DHT22;6943;52.368;9.966;2022-10-31T19:02:24;14.10;99.90
13744;DHT22;6943;52.368;9.966;2022-10-31T19:04:50;14.10;99.90
13744;DHT22;6943;52.368;9.966;2022-10-31T19:07:15;14.10;99.90
13744;DHT22;6943;52.368;9.966;2022-10-31T19:09:41;14.10;99.90
13744;DHT22;6943;52.368;9.966;2022-10-31T19:12:06;14.10;99.90
13744;DHT22;6943;52.368;9.966;2022-10-31T19:14:32;14.10;99.90
13744;DHT22;6943;52.368;9.966;2022-10-31T19:16:57;14.10;99.90
13744;DHT22;6943;52.368;9.966;2022-10-31T19:19:23;14.00;99.90
13744;DHT22;6943;52.368;9.966;2022-10-31T19:21:48;14.00;99.90
13744;DHT22;6943;52.368;9.966;2022-10-31T19:24:14;14.00;99.90
13744;DHT22;6943;52.368;9.966;2022-10-31T19:26:39;13.90;99.90
13744;DHT22;6943;52.368;9.966;2022-10-31T19:29:05;14.30;99.90
13744;DHT22;6943;52.368;9.966;2022-10-31T19:31:30;14.00;99.90
13744;DHT22;6943;52.368;9.966;2022-10-31T19:33:56;13.90;99.90
13744;DHT22;6943;52.368;9.966;2022-10-31T19:36:22;13.90;99.90
13744;DHT22;6943;52.368;9.966;2022-10-31T19:38:50;13.90;99.90
13744;DHT22;6943;52.368;9.966;2022-10-31T19:41:22;13.90;99.90
13744;DHT22;6943;52.368;9.966;2022-10-31T19:43:48;13.90;99.90
13744;DHT22;6943;52.368;9.966;2022-10-31T19:46:15;13.80;99.90
13744;DHT22;6943;52.368;9.966;2022-10-31T19:48:41;13.80;99.90
13744;DHT22;6943;52.368;9.966;2022-10-31T19:51:12;14.10;99.90
13744;DHT22;6943;52.368;9.966;2022-10-31T19:53:38;13.80;99.90
13744;DHT22;6943;52.368;9.966;2022-10-31T19:56:10;13.70;99.90
13744;DHT22;6943;52.368;9.966;2022-10-31T19:58:36;13.70;99.90
13744;DHT22;6943;52.368;9.966;2022-10-31T20:01:09;13.40;99.90
13744;DHT22;6943;52.368;9.966;2022-10-31T20:03:39;13.60;99.90
13744;DHT22;6943;52.368;9.966;2022-10-31T20:06:06;13.60;99.90
13744;DHT22;6943;52.368;9.966;2022-10-31T20:08:32;13.60;99.90
13744;DHT22;6943;52.368;9.966;2022-10-31T20:11:01;13.60;99.90
13744;DHT22;6943;52.368;9.966;2022-10-31T20:13:28;13.60;99.90
13744;DHT22;6943;52.368;9.966;2022-10-31T20:16:02;13.60;99.90
13744;DHT22;6943;52.368;9.966;2022-10-31T20:18:28;13.60;99.90
13744;DHT22;6943;52.368;9.966;2022-10-31T20:21:01;13.60;99.90
13744;DHT22;6943;52.368;9.966;2022-10-31T20:23:26;13.60;99.90
13744;DHT22;6943;52.368;9.966;2022-10-31T20:25:52;13.60;99.90
13744;DHT22;6943;52.368;9.966;2022-10-31T20:28:17;13.70;99.90
13744;DHT22;6943;52.368;9.966;2022-10-31T20:30:43;13.70;99.90
13744;DHT22;6943;52.368;9.966;2022-10-31T20:33:09;14.30;99.90
13744;DHT22;6943;52.368;9.966;2022-10-31T20:35:36;13.60;99.90
13744;DHT22;6943;52.368;9.966;2022-10-31T20:38:02;13.60;99.90
13744;DHT22;6943;52.368;9.966;2022-10-31T20:40:30;13.60;99.90
13744;DHT22;6943;52.368;9.966;2022-10-31T20:42:55;13.60;99.90
13744;DHT22;6943;52.368;9.966;2022-10-31T20:45:21;15.30;99.90
13744;DHT22;6943;52.368;9.966;2022-10-31T20:47:46;13.60;99.90
13744;DHT22;6943;52.368;9.966;2022-10-31T20:50:12;13.50;99.90
13744;DHT22;6943;52.368;9.966;2022-10-31T20:52:37;13.50;99.90
13744;DHT22;6943;52.368;9.966;2022-10-31T20:55:05;13.50;99.90
13744;DHT22;6943;52.368;9.966;2022-10-31T20:57:31;13.50;99.90
13744;DHT22;6943;52.368;9.966;2022-10-31T20:59:57;12.50;99.90
13744;DHT22;6943;52.368;9.966;2022-10-31T21:02:22;13.50;99.90
13744;DHT22;6943;52.368;9.966;2022-10-31T21:04:48;13.50;99.90
13744;DHT22;6943;52.368;9.966;2022-10-31T21:07:13;13.40;99.90
13744;DHT22;6943;52.368;9.966;2022-10-31T21:09:39;13.50;99.90
13744;DHT22;6943;52.368;9.966;2022-10-31T21:12:04;13.50;99.90
13744;DHT22;6943;52.368;9.966;2022-10-31T21:14:30;13.00;99.90
13744;DHT22;6943;52.368;9.966;2022-10-31T21:16:55;13.60;99.90
13744;DHT22;6943;52.368;9.966;2022-10-31T21:19:21;13.60;99.90
13744;DHT22;6943;52.368;9.966;2022-10-31T21:21:46;13.50;99.90
13744;DHT22;6943;52.368;9.966;2022-10-31T21:24:16;13.40;99.90
13744;DHT22;6943;52.368;9.966;2022-10-31T21:26:44;13.40;99.90
13744;DHT22;6943;52.368;9.966;2022-10-31T21:29:11;13.70;99.90
13744;DHT22;6943;52.368;9.966;2022-10-31T21:31:37;13.30;99.90
13744;DHT22;6943;52.368;9.966;2022-10-31T21:34:03;13.20;99.90
13744;DHT22;6943;52.368;9.966;2022-10-31T21:36:29;13.20;99.90
13744;DHT22;6943;52.368;9.966;2022-10-31T21:38:54;13.20;99.90
13744;DHT22;6943;52.368;9.966;2022-10-31T21:41:21;13.10;99.90
13744;DHT22;6943;52.368;9.966;2022-10-31T21:43:48;13.00;99.90
13744;DHT22;6943;52.368;9.966;2022-10-31T21:46:19;13.00;99.90
13744;DHT22;6943;52.368;9.966;2022-10-31T21:48:45;13.00;99.90
13744;DHT22;6943;52.368;9.966;2022-10-31T21:51:16;12.90;99.90
13744;DHT22;6943;52.368;9.966;2022-10-31T21:53:42;12.90;99.90
13744;DHT22;6943;52.368;9.966;2022-10-31T21:56:27;12.80;99.90
13744;DHT22;6943;52.368;9.966;2022-10-31T21:58:53;11.90;99.90
13744;DHT22;6943;52.368;9.966;2022-10-31T22:01:20;14.60;99.90
13744;DHT22;6943;52.368;9.966;2022-10-31T22:03:46;12.80;99.90
13744;DHT22;6943;52.368;9.966;2022-10-31T22:06:12;12.80;99.90
13744;DHT22;6943;52.368;9.966;2022-10-31T22:08:38;12.80;99.90
13744;DHT22;6943;52.368;9.966;2022-10-31T22:11:07;12.80;99.90
13744;DHT22;6943;52.368;9.966;2022-10-31T22:13:34;12.80;99.90
13744;DHT22;6943;52.368;9.966;2022-10-31T22:16:04;12.90;99.90
13744;DHT22;6943;52.368;9.966;2022-10-31T22:18:30;12.70;99.90
13744;DHT22;6943;52.368;9.966;2022-10-31T22:21:13;12.70;99.90
13744;DHT22;6943;52.368;9.966;2022-10-31T22:23:40;12.60;99.90
13744;DHT22;6943;52.368;9.966;2022-10-31T22:26:11;12.60;99.90
13744;DHT22;6943;52.368;9.966;2022-10-31T22:28:42;11.20;99.90
13744;DHT22;6943;52.368;9.966;2022-10-31T22:31:09;12.50;99.90
13744;DHT22;6943;52.368;9.966;2022-10-31T22:33:35;12.50;99.90
13744;DHT22;6943;52.368;9.966;2022-10-31T22:36:02;12.40;99.90
13744;DHT22;6943;52.368;9.966;2022-10-31T22:38:32;12.40;99.90
13744;DHT22;6943;52.368;9.966;2022-10-31T22:40:59;12.20;99.90
13744;DHT22;6943;52.368;9.966;2022-10-31T22:43:25;12.20;99.90
13744;DHT22;6943;52.368;9.966;2022-10-31T22:45:57;12.20;99.90
13744;DHT22;6943;52.368;9.966;2022-10-31T22:48:26;12.30;99.90
13744;DHT22;6943;52.368;9.966;2022-10-31T22:50:51;12.20;99.90
13744;DHT22;6943;52.368;9.966;2022-10-31T22:53:17;12.10;99.90
13744;DHT22;6943;52.368;9.966;2022-10-31T22:55:42;12.10;99.90
13744;DHT22;6943;52.368;9.966;2022-10-31T22:58:08;11.90;99.90
13744;DHT22;6943;52.368;9.966;2022-10-31T23:00:33;11.20;99.90
13744;DHT22;6943;52.368;9.966;2022-10-31T23:02:59;12.40;99.90
13744;DHT22;6943;52.368;9.966;2022-10-31T23:05:26;12.10;99.90
13744;DHT22;6943;52.368;9.966;2022-10-31T23:07:52;12.00;99.90
13744;DHT22;6943;52.368;9.966;2022-10-31T23:10:17;11.90;99.90